createdAt,value
2023-01-08T00:00:03.658Z,9.50
2023-01-08T00:02:39.389Z,13.00
2023-01-08T00:05:07.152Z,7.00
2023-01-08T00:07:34.459Z,11.20
2023-01-08T00:10:01.464Z,10.65
2023-01-08T00:12:28.513Z,11.38
2023-01-08T00:14:55.644Z,8.73
2023-01-08T00:17:22.629Z,12.98
2023-01-08T00:19:49.672Z,9.00
2023-01-08T00:22:16.671Z,10.90
2023-01-08T00:24:43.744Z,11.02
2023-01-08T00:27:11.087Z,14.18
2023-01-08T00:29:38.166Z,9.95
2023-01-08T00:32:05.281Z,11.65
2023-01-08T00:34:32.405Z,10.43
2023-01-08T00:36:59.337Z,11.98
2023-01-08T00:39:26.429Z,7.63
2023-01-08T00:41:53.449Z,9.43
2023-01-08T00:44:20.478Z,10.60
2023-01-08T00:46:47.516Z,11.82
2023-01-08T00:49:14.608Z,9.20
2023-01-08T00:51:41.613Z,9.05
2023-01-08T00:54:10.970Z,9.55
2023-01-08T00:56:38.087Z,7.03
2023-01-08T00:59:05.145Z,6.35
2023-01-08T01:01:32.235Z,9.48
2023-01-08T01:03:59.467Z,7.57
2023-01-08T01:06:26.531Z,5.80
2023-01-08T01:08:53.641Z,11.30
2023-01-08T01:11:23.637Z,5.75
2023-01-08T01:13:51.321Z,8.82
2023-01-08T01:16:18.696Z,8.68
2023-01-08T01:18:45.874Z,6.47
2023-01-08T01:21:29.300Z,10.02
2023-01-08T01:23:58.812Z,10.17
2023-01-08T01:26:26.415Z,9.00
2023-01-08T01:28:55.892Z,13.82
2023-01-08T01:31:24.515Z,7.93
2023-01-08T01:33:51.842Z,5.95
2023-01-08T01:36:22.702Z,5.50
2023-01-08T01:38:53.167Z,7.97
2023-01-08T01:41:53.500Z,8.02
2023-01-08T01:44:52.419Z,8.27
2023-01-08T01:47:28.211Z,10.25
2023-01-08T01:50:09.133Z,10.00
2023-01-08T01:52:43.179Z,4.70
2023-01-08T01:55:13.121Z,5.10
2023-01-08T01:57:42.130Z,9.18
2023-01-08T02:00:10.229Z,12.52
2023-01-08T02:02:40.190Z,8.52
2023-01-08T02:05:08.524Z,11.65
2023-01-08T02:08:02.188Z,7.38
2023-01-08T02:10:37.184Z,14.85
2023-01-08T02:13:14.167Z,11.20
2023-01-08T02:15:57.024Z,14.27
2023-01-08T02:18:55.285Z,11.77
2023-01-08T02:21:55.892Z,14.00
2023-01-08T02:24:31.783Z,8.70
2023-01-08T02:27:01.222Z,9.70
2023-01-08T02:29:30.553Z,11.02
2023-01-08T02:31:57.803Z,12.10
2023-01-08T02:34:24.896Z,11.27
2023-01-08T02:36:54.993Z,12.35
2023-01-08T02:39:58.950Z,7.70
2023-01-08T02:42:57.651Z,9.55
2023-01-08T02:45:36.900Z,8.70
2023-01-08T02:48:07.014Z,11.07
2023-01-08T02:50:52.653Z,10.98
2023-01-08T02:53:24.321Z,11.88
2023-01-08T02:56:05.968Z,14.50
2023-01-08T02:58:35.077Z,14.57
2023-01-08T03:01:04.939Z,14.07
2023-01-08T03:03:35.118Z,11.75
2023-01-08T03:06:08.970Z,11.13
2023-01-08T03:08:43.360Z,11.20
2023-01-08T03:11:17.492Z,7.97
2023-01-08T03:16:16.621Z,9.95
2023-01-08T03:18:51.480Z,8.13
2023-01-08T03:21:19.958Z,9.00
2023-01-08T03:23:48.511Z,12.73
2023-01-08T03:26:23.420Z,17.33
2023-01-08T03:28:54.716Z,7.85
2023-01-08T03:31:25.190Z,13.93
2023-01-08T03:33:52.948Z,5.80
2023-01-08T03:36:24.384Z,10.25
2023-01-08T03:39:00.820Z,11.45
2023-01-08T03:41:32.096Z,10.18
2023-01-08T03:43:59.069Z,12.35
2023-01-08T03:46:32.925Z,10.85
2023-01-08T03:49:00.995Z,13.70
2023-01-08T03:51:28.008Z,14.80
2023-01-08T03:53:58.896Z,15.80
2023-01-08T03:56:26.238Z,12.13
2023-01-08T03:58:53.378Z,11.15
2023-01-08T04:01:20.516Z,7.07
2023-01-08T04:03:47.529Z,9.93
2023-01-08T04:06:14.577Z,15.52
2023-01-08T04:08:41.575Z,12.57
2023-01-08T04:11:08.558Z,11.80
2023-01-08T04:13:35.547Z,6.47
2023-01-08T04:16:02.663Z,15.90
2023-01-08T04:18:29.677Z,13.80
2023-01-08T04:20:56.741Z,9.18
2023-01-08T04:23:23.884Z,10.90
2023-01-08T04:25:50.932Z,15.60
2023-01-08T04:28:18.012Z,13.63
2023-01-08T04:30:45.344Z,7.57
2023-01-08T04:33:12.373Z,10.05
2023-01-08T04:35:39.610Z,17.67
2023-01-08T04:38:06.616Z,13.40
2023-01-08T04:40:34.428Z,13.32
2023-01-08T04:43:01.407Z,8.52
2023-01-08T04:45:28.528Z,14.95
2023-01-08T04:47:59.680Z,13.13
2023-01-08T04:50:27.204Z,11.18
2023-01-08T04:52:54.407Z,11.85
2023-01-08T04:55:21.604Z,12.88
2023-01-08T04:57:48.588Z,12.63
2023-01-08T05:00:16.109Z,13.38
2023-01-08T05:02:43.456Z,9.63
2023-01-08T05:05:10.714Z,11.60
2023-01-08T05:07:37.786Z,20.60
2023-01-08T05:10:05.221Z,10.05
2023-01-08T05:12:32.195Z,12.38
2023-01-08T05:14:59.272Z,14.07
2023-01-08T05:17:26.274Z,15.88
2023-01-08T05:19:53.298Z,12.98
2023-01-08T05:22:20.240Z,13.23
2023-01-08T05:24:47.282Z,12.73
2023-01-08T05:27:14.320Z,10.73
2023-01-08T05:29:41.359Z,12.82
2023-01-08T05:32:16.262Z,8.02
2023-01-08T05:34:43.912Z,10.93
2023-01-08T05:37:11.660Z,8.65
2023-01-08T05:39:38.732Z,10.43
2023-01-08T05:42:05.771Z,14.02
2023-01-08T05:44:32.811Z,12.80
2023-01-08T05:46:59.838Z,13.35
2023-01-08T05:49:27.125Z,9.20
2023-01-08T05:51:56.689Z,12.50
2023-01-08T05:54:23.735Z,11.20
2023-01-08T05:56:50.848Z,11.68
2023-01-08T05:59:17.933Z,17.88
2023-01-08T06:01:44.974Z,10.48
2023-01-08T06:04:12.140Z,9.30
2023-01-08T06:06:39.130Z,8.90
2023-01-08T06:09:06.259Z,9.60
2023-01-08T06:11:33.311Z,10.27
2023-01-08T06:14:00.378Z,13.43
2023-01-08T06:16:27.321Z,13.50
2023-01-08T06:18:54.347Z,17.15
2023-01-08T06:21:21.337Z,11.23
2023-01-08T06:23:48.376Z,8.43
2023-01-08T06:26:15.361Z,13.45
2023-01-08T06:28:42.413Z,16.80
2023-01-08T06:31:09.553Z,17.77
2023-01-08T06:33:37.008Z,12.95
2023-01-08T06:36:05.411Z,10.63
2023-01-08T06:38:33.697Z,8.48
2023-01-08T06:41:04.992Z,11.38
2023-01-08T06:43:33.081Z,6.90
2023-01-08T06:46:04.750Z,10.88
2023-01-08T06:48:31.821Z,9.98
2023-01-08T06:51:02.831Z,13.13
2023-01-08T06:53:30.087Z,7.05
2023-01-08T06:55:58.733Z,8.07
2023-01-08T06:58:30.298Z,6.65
2023-01-08T07:00:59.012Z,7.28
2023-01-08T07:03:26.908Z,7.25
2023-01-08T07:05:54.077Z,8.40
2023-01-08T07:08:21.102Z,4.70
2023-01-08T07:10:48.201Z,9.73
2023-01-08T07:13:15.558Z,4.55
2023-01-08T07:15:43.416Z,6.25
2023-01-08T07:18:12.201Z,6.70
2023-01-08T07:20:39.430Z,4.85
2023-01-08T07:23:09.600Z,4.45
2023-01-08T07:25:36.732Z,4.90
2023-01-08T07:28:03.718Z,5.28
2023-01-08T07:30:31.060Z,2.85
2023-01-08T07:33:01.742Z,6.57
2023-01-08T07:35:29.732Z,7.40
2023-01-08T07:37:57.092Z,5.75
2023-01-08T07:40:24.436Z,5.25
2023-01-08T07:43:04.553Z,6.20
2023-01-08T07:45:32.660Z,4.07
2023-01-08T07:48:00.467Z,9.95
2023-01-08T07:50:27.971Z,6.40
2023-01-08T07:53:04.128Z,3.28
2023-01-08T07:55:31.794Z,4.88
2023-01-08T07:57:59.276Z,4.50
2023-01-08T08:00:26.852Z,2.78
2023-01-08T08:02:54.020Z,3.50
2023-01-08T08:05:21.257Z,4.65
2023-01-08T08:07:48.207Z,5.72
2023-01-08T08:10:15.264Z,4.13
2023-01-08T08:12:45.211Z,5.13
2023-01-08T08:15:12.251Z,2.80
2023-01-08T08:17:39.257Z,8.45
2023-01-08T08:20:06.977Z,9.32
2023-01-08T08:22:33.968Z,3.78
2023-01-08T08:25:01.133Z,8.23
2023-01-08T08:27:28.287Z,4.18
2023-01-08T08:29:55.398Z,5.78
2023-01-08T08:32:22.428Z,4.45
2023-01-08T08:34:50.837Z,4.13
2023-01-08T08:37:17.787Z,4.60
2023-01-08T08:39:44.845Z,6.20
2023-01-08T08:42:11.748Z,4.22
2023-01-08T08:44:40.285Z,9.65
2023-01-08T08:47:11.741Z,3.58
2023-01-08T08:49:38.847Z,5.15
2023-01-08T08:52:06.177Z,5.95
2023-01-08T08:54:33.258Z,4.97
2023-01-08T08:57:00.200Z,3.40
2023-01-08T08:59:27.202Z,6.53
2023-01-08T09:01:54.291Z,8.63
2023-01-08T09:04:21.378Z,5.28
2023-01-08T09:06:48.452Z,4.45
2023-01-08T09:09:15.919Z,6.22
2023-01-08T09:11:43.005Z,3.00
2023-01-08T09:14:10.443Z,5.97
2023-01-08T09:16:37.562Z,13.20
2023-01-08T09:19:05.645Z,5.20
2023-01-08T09:21:32.725Z,5.38
2023-01-08T09:23:59.820Z,6.07
2023-01-08T09:26:28.748Z,6.97
2023-01-08T09:28:56.299Z,7.28
2023-01-08T09:31:23.440Z,9.30
2023-01-08T09:33:51.148Z,4.35
2023-01-08T09:36:18.966Z,7.38
2023-01-08T09:38:46.404Z,5.63
2023-01-08T09:41:26.007Z,7.55
2023-01-08T09:43:55.651Z,10.70
2023-01-08T09:46:26.731Z,4.07
2023-01-08T09:48:56.916Z,3.65
2023-01-08T09:51:33.695Z,6.18
2023-01-08T09:54:02.312Z,11.27
2023-01-08T09:56:30.572Z,7.82
2023-01-08T09:59:00.450Z,6.13
2023-01-08T10:01:30.844Z,8.15
2023-01-08T10:04:27.165Z,8.98
2023-01-08T10:07:16.065Z,10.25
2023-01-08T10:09:43.132Z,6.78
2023-01-08T10:12:12.712Z,6.72
2023-01-08T10:14:48.134Z,12.00
2023-01-08T10:17:34.976Z,6.05
2023-01-08T10:20:02.244Z,10.30
2023-01-08T10:22:33.898Z,14.90
2023-01-08T10:25:24.915Z,10.63
2023-01-08T10:28:00.636Z,7.07
2023-01-08T10:30:37.657Z,7.35
2023-01-08T10:33:20.162Z,5.00
2023-01-08T10:35:55.001Z,7.82
2023-01-08T10:38:33.664Z,6.32
2023-01-08T10:41:05.251Z,10.10
2023-01-08T10:43:54.110Z,9.38
2023-01-08T10:46:27.384Z,8.70
2023-01-08T10:49:00.559Z,8.02
2023-01-08T10:51:32.950Z,8.87
2023-01-08T10:54:15.228Z,5.97
2023-01-08T10:56:44.934Z,12.05
2023-01-08T10:59:19.934Z,12.48
2023-01-08T11:01:48.912Z,11.82
2023-01-08T11:04:22.724Z,8.13
2023-01-08T11:06:50.264Z,10.60
2023-01-08T11:09:23.986Z,8.15
2023-01-08T11:14:35.222Z,8.32
2023-01-08T11:17:10.452Z,11.60
2023-01-08T11:19:40.020Z,10.40
2023-01-08T11:22:22.757Z,11.27
2023-01-08T11:24:54.221Z,11.45
2023-01-08T11:27:24.117Z,14.32
2023-01-08T11:30:13.062Z,14.90
2023-01-08T11:33:16.932Z,10.02
2023-01-08T11:35:54.744Z,8.05
2023-01-08T11:38:21.889Z,14.13
2023-01-08T11:40:58.322Z,9.07
2023-01-08T11:43:30.810Z,10.60
2023-01-08T11:46:00.870Z,15.23
2023-01-08T11:49:01.856Z,17.60
2023-01-08T11:51:53.488Z,14.80
2023-01-08T11:54:48.178Z,10.80
2023-01-08T11:57:34.948Z,11.63
2023-01-08T12:00:29.729Z,12.32
2023-01-08T12:03:11.417Z,12.40
2023-01-08T12:05:50.063Z,13.80
2023-01-08T12:08:45.012Z,11.63
2023-01-08T12:11:28.650Z,16.70
2023-01-08T12:14:02.681Z,16.20
2023-01-08T12:19:43.878Z,10.30
2023-01-08T12:22:22.644Z,13.52
2023-01-08T12:25:10.698Z,11.85
2023-01-08T12:28:00.779Z,9.63
2023-01-08T12:30:51.285Z,11.85
2023-01-08T12:33:43.613Z,12.48
2023-01-08T12:36:21.091Z,12.13
2023-01-08T12:39:04.957Z,12.43
2023-01-08T12:41:36.215Z,12.20
2023-01-08T12:44:05.762Z,19.17
2023-01-08T12:46:37.788Z,19.15
2023-01-08T12:49:08.126Z,19.75
2023-01-08T12:52:02.852Z,15.82
2023-01-08T12:54:37.327Z,10.40
2023-01-08T12:57:29.951Z,12.57
2023-01-08T13:00:10.330Z,18.30
2023-01-08T13:03:03.978Z,14.85
2023-01-08T13:05:34.886Z,17.92
2023-01-08T13:08:27.992Z,16.30
2023-01-08T13:10:55.996Z,13.10
2023-01-08T13:13:41.878Z,13.65
2023-01-08T13:16:11.850Z,14.10
2023-01-08T13:18:39.328Z,11.60
2023-01-08T13:21:08.975Z,13.27
2023-01-08T13:23:36.653Z,15.32
2023-01-08T13:26:06.324Z,10.85
2023-01-08T13:28:39.444Z,11.80
2023-01-08T13:31:29.568Z,13.43
2023-01-08T13:33:56.810Z,14.00
2023-01-08T13:36:24.028Z,14.93
2023-01-08T13:39:14.138Z,12.80
2023-01-08T13:41:59.952Z,13.80
2023-01-08T13:44:30.033Z,15.13
2023-01-08T13:47:02.621Z,15.18
2023-01-08T13:49:36.858Z,13.23
2023-01-08T13:52:04.182Z,17.55
2023-01-08T13:54:38.202Z,13.93
2023-01-08T13:57:15.337Z,17.25
2023-01-08T13:59:57.476Z,12.68
2023-01-08T14:02:31.238Z,17.23
2023-01-08T14:05:00.400Z,12.93
2023-01-08T14:07:28.416Z,12.15
2023-01-08T14:10:12.636Z,12.60
2023-01-08T14:15:11.344Z,15.25
2023-01-08T14:17:38.373Z,14.68
2023-01-08T14:20:11.213Z,14.55
2023-01-08T14:22:39.552Z,16.98
2023-01-08T14:25:07.986Z,15.63
2023-01-08T14:27:35.612Z,14.25
2023-01-08T14:30:02.727Z,13.40
2023-01-08T14:32:31.137Z,12.23
2023-01-08T14:35:01.279Z,14.52
2023-01-08T14:37:28.350Z,11.55
2023-01-08T14:39:55.448Z,12.93
2023-01-08T14:42:47.353Z,10.73
2023-01-08T14:45:31.596Z,13.80
2023-01-08T14:48:00.423Z,14.88
2023-01-08T14:50:33.908Z,13.63
2023-01-08T14:53:34.183Z,12.35
2023-01-08T14:56:02.417Z,9.65
2023-01-08T14:58:36.499Z,13.85
2023-01-08T15:01:19.701Z,12.80
2023-01-08T15:03:49.424Z,11.10
2023-01-08T15:06:27.045Z,12.93
2023-01-08T15:08:54.338Z,17.70
2023-01-08T15:11:24.095Z,12.98
2023-01-08T15:13:53.066Z,9.63
2023-01-08T15:16:39.234Z,9.77
2023-01-08T15:19:15.077Z,9.18
2023-01-08T15:22:15.759Z,11.52
2023-01-08T15:24:44.493Z,10.73
2023-01-08T15:27:19.053Z,13.35
2023-01-08T15:29:51.709Z,10.65
2023-01-08T15:32:23.226Z,8.98
2023-01-08T15:34:50.507Z,10.88
2023-01-08T15:37:17.545Z,8.60
2023-01-08T15:39:44.653Z,12.35
2023-01-08T15:42:42.749Z,9.23
2023-01-08T15:45:18.172Z,11.13
2023-01-08T15:47:45.332Z,10.07
2023-01-08T15:50:12.908Z,9.38
2023-01-08T15:52:42.391Z,8.77
2023-01-08T15:55:20.562Z,13.82
2023-01-08T15:57:48.243Z,9.30
2023-01-08T16:00:16.870Z,9.38
2023-01-08T16:02:48.645Z,9.57
2023-01-08T16:05:17.687Z,8.95
2023-01-08T16:07:46.417Z,8.93
2023-01-08T16:10:17.223Z,11.25
2023-01-08T16:12:44.903Z,7.72
2023-01-08T16:15:13.589Z,12.07
2023-01-08T16:17:41.161Z,7.65
2023-01-08T16:20:09.053Z,10.18
2023-01-08T16:22:36.131Z,12.57
2023-01-08T16:25:03.488Z,10.02
2023-01-08T16:27:34.357Z,7.38
2023-01-08T16:30:01.446Z,10.00
2023-01-08T16:32:28.440Z,8.57
2023-01-08T16:34:55.520Z,11.20
2023-01-08T16:37:23.006Z,8.80
2023-01-08T16:39:50.293Z,9.60
2023-01-08T16:42:17.442Z,9.70
2023-01-08T16:44:44.497Z,15.77
2023-01-08T16:47:11.497Z,11.02
2023-01-08T16:49:39.802Z,12.00
2023-01-08T16:52:09.651Z,11.30
2023-01-08T16:54:36.766Z,9.40
2023-01-08T16:57:03.808Z,11.15
2023-01-08T16:59:33.173Z,11.10
2023-01-08T17:02:00.622Z,9.25
2023-01-08T17:04:29.593Z,7.85
2023-01-08T17:06:57.314Z,12.27
2023-01-08T17:09:25.093Z,6.15
2023-01-08T17:11:52.205Z,10.95
2023-01-08T17:14:19.518Z,11.43
2023-01-08T17:16:47.709Z,12.93
2023-01-08T17:19:15.287Z,10.27
2023-01-08T17:21:42.842Z,8.90
2023-01-08T17:24:10.012Z,10.23
2023-01-08T17:26:37.109Z,9.63
2023-01-08T17:29:04.303Z,8.15
2023-01-08T17:31:36.741Z,10.18
2023-01-08T17:34:03.812Z,8.88
2023-01-08T17:36:32.193Z,9.38
2023-01-08T17:39:01.095Z,10.48
2023-01-08T17:41:46.629Z,11.45
2023-01-08T17:44:14.156Z,8.90
2023-01-08T17:46:44.502Z,7.82
2023-01-08T17:49:13.890Z,9.35
2023-01-08T17:51:41.926Z,13.10
2023-01-08T17:54:17.208Z,10.32
2023-01-08T17:56:44.314Z,9.30
2023-01-08T17:59:14.193Z,9.68
2023-01-08T18:01:41.218Z,9.55
2023-01-08T18:04:08.153Z,11.43
2023-01-08T18:06:36.009Z,9.32
2023-01-08T18:09:03.615Z,10.65
2023-01-08T18:11:31.097Z,8.90
2023-01-08T18:14:00.092Z,10.60
2023-01-08T18:16:28.034Z,10.73
2023-01-08T18:18:59.254Z,10.30
2023-01-08T18:21:27.377Z,9.23
2023-01-08T18:23:54.604Z,10.80
2023-01-08T18:26:22.551Z,12.05
2023-01-08T18:28:51.372Z,11.18
2023-01-08T18:31:18.508Z,9.88
2023-01-08T18:33:45.484Z,10.85
2023-01-08T18:36:13.127Z,15.25
2023-01-08T18:38:42.440Z,11.50
2023-01-08T18:41:12.253Z,10.55
2023-01-08T18:43:39.322Z,8.10
2023-01-08T18:46:07.967Z,6.38
2023-01-08T18:48:35.739Z,5.63
2023-01-08T18:51:05.797Z,6.30
2023-01-08T18:53:33.853Z,4.55
2023-01-08T18:56:01.984Z,5.75
2023-01-08T18:58:29.840Z,3.05
2023-01-08T19:01:04.186Z,6.20
2023-01-08T19:03:31.355Z,3.88
2023-01-08T19:05:58.363Z,7.60
2023-01-08T19:08:25.831Z,4.45
2023-01-08T19:10:52.926Z,4.00
2023-01-08T19:13:20.042Z,4.15
2023-01-08T19:15:47.504Z,5.63
2023-01-08T19:18:14.586Z,3.88
2023-01-08T19:20:46.377Z,4.32
2023-01-08T19:23:14.925Z,4.22
2023-01-08T19:25:42.505Z,4.25
2023-01-08T19:28:09.577Z,6.30
2023-01-08T19:30:37.687Z,4.20
2023-01-08T19:33:04.820Z,2.90
2023-01-08T19:35:32.049Z,2.40
2023-01-08T19:37:59.281Z,3.33
2023-01-08T19:40:26.284Z,2.70
2023-01-08T19:43:12.185Z,2.97
2023-01-08T19:45:39.395Z,2.85
2023-01-08T19:48:07.252Z,7.15
2023-01-08T19:50:37.479Z,4.00
2023-01-08T19:53:05.188Z,5.18
2023-01-08T19:55:35.408Z,3.35
2023-01-08T19:58:02.794Z,2.65
2023-01-08T20:00:47.489Z,3.42
2023-01-08T20:03:18.075Z,2.67
2023-01-08T20:06:18.239Z,4.90
2023-01-08T20:08:50.179Z,4.47
2023-01-08T20:11:26.212Z,3.80
2023-01-08T20:14:08.641Z,7.15
2023-01-08T20:21:24.465Z,2.50
2023-01-08T20:53:15.121Z,4.85
2023-01-08T20:55:43.935Z,3.58
2023-01-08T20:58:11.685Z,4.15
2023-01-08T21:00:39.096Z,6.32
2023-01-08T21:03:06.465Z,3.75
2023-01-08T21:05:36.756Z,4.18
2023-01-08T21:08:04.580Z,3.42
2023-01-08T21:10:32.201Z,3.45
2023-01-08T21:12:59.770Z,4.00
2023-01-08T21:15:27.304Z,4.57
2023-01-08T21:17:55.093Z,3.75
2023-01-08T21:20:23.281Z,3.28
2023-01-08T21:22:53.127Z,4.55
2023-01-08T21:25:27.451Z,5.05
2023-01-08T21:28:03.848Z,3.42
2023-01-08T21:30:41.444Z,3.08
2023-01-08T21:33:10.214Z,4.72
2023-01-08T21:35:40.086Z,4.07
2023-01-08T21:38:09.401Z,2.85
2023-01-08T21:40:38.659Z,4.55
2023-01-08T21:43:32.551Z,5.38
2023-01-08T21:46:26.547Z,6.93
2023-01-08T21:48:54.467Z,3.65
2023-01-08T21:51:54.952Z,4.85
2023-01-08T21:54:22.930Z,3.60
2023-01-08T21:56:50.347Z,4.43
2023-01-08T21:59:17.917Z,4.45
2023-01-08T22:01:48.658Z,4.88
2023-01-08T22:04:16.818Z,4.75
2023-01-08T22:06:44.323Z,3.95
2023-01-08T22:09:11.814Z,5.80
2023-01-08T22:11:39.373Z,7.07
2023-01-08T22:14:06.721Z,8.45
2023-01-08T22:16:34.016Z,12.45
2023-01-08T22:19:01.413Z,7.25
2023-01-08T22:21:28.660Z,8.45
2023-01-08T22:23:56.795Z,5.85
2023-01-08T22:26:25.866Z,4.90
2023-01-08T22:28:53.314Z,6.80
2023-01-08T22:31:23.146Z,5.80
2023-01-08T22:33:54.442Z,4.78
2023-01-08T22:36:22.366Z,5.20
2023-01-08T22:38:49.726Z,5.57
2023-01-08T22:41:22.634Z,4.45
2023-01-08T22:43:56.038Z,6.22
2023-01-08T22:46:24.410Z,5.80
2023-01-08T22:48:51.883Z,6.50
2023-01-08T22:51:22.679Z,5.55
2023-01-08T22:53:49.908Z,4.30
2023-01-08T22:56:17.132Z,5.70
2023-01-08T22:58:47.829Z,5.53
2023-01-08T23:01:18.111Z,7.22
2023-01-08T23:03:51.301Z,4.72
2023-01-08T23:06:20.514Z,3.60
2023-01-08T23:08:50.771Z,4.50
2023-01-08T23:11:19.995Z,5.82
2023-01-08T23:13:47.971Z,6.63
2023-01-08T23:16:17.062Z,7.28
2023-01-08T23:18:45.041Z,6.97
2023-01-08T23:21:18.075Z,4.75
2023-01-08T23:23:45.784Z,6.47
2023-01-08T23:26:25.147Z,5.78
2023-01-08T23:28:54.054Z,6.20
2023-01-08T23:34:04.148Z,4.20
2023-01-08T23:36:31.936Z,6.07
2023-01-08T23:38:59.724Z,5.20
2023-01-08T23:41:34.551Z,7.57
2023-01-08T23:44:05.959Z,8.43
2023-01-08T23:46:34.283Z,6.55
2023-01-08T23:49:01.707Z,7.63
2023-01-08T23:51:29.331Z,5.97
2023-01-08T23:53:56.834Z,5.72
2023-01-08T23:56:24.211Z,11.50
2023-01-08T23:58:53.310Z,7.70
